sensor_id;sensor_type;location;lat;lon;timestamp;P1;durP1;ratioP1;P2;durP2;ratioP2
54454;SDS011;40364;52.270;10.546;2023-03-20T00:01:49;11.85;;;7.20;;
54454;SDS011;40364;52.270;10.546;2023-03-20T00:04:15;11.45;;;7.10;;
54454;SDS011;40364;52.270;10.546;2023-03-20T00:06:42;13.07;;;7.32;;
54454;SDS011;40364;52.270;10.546;2023-03-20T00:09:08;11.20;;;6.78;;
54454;SDS011;40364;52.270;10.546;2023-03-20T00:11:38;11.63;;;7.05;;
54454;SDS011;40364;52.270;10.546;2023-03-20T00:14:07;12.88;;;7.15;;
54454;SDS011;40364;52.270;10.546;2023-03-20T00:16:34;14.82;;;7.65;;
54454;SDS011;40364;52.270;10.546;2023-03-20T00:19:01;11.13;;;7.40;;
54454;SDS011;40364;52.270;10.546;2023-03-20T00:21:28;10.98;;;6.47;;
54454;SDS011;40364;52.270;10.546;2023-03-20T00:23:55;10.13;;;6.90;;
54454;SDS011;40364;52.270;10.546;2023-03-20T00:26:22;12.00;;;7.10;;
54454;SDS011;40364;52.270;10.546;2023-03-20T00:28:51;12.93;;;7.10;;
54454;SDS011;40364;52.270;10.546;2023-03-20T00:31:20;12.70;;;7.40;;
54454;SDS011;40364;52.270;10.546;2023-03-20T00:33:48;11.35;;;6.75;;
54454;SDS011;40364;52.270;10.546;2023-03-20T00:36:15;10.13;;;6.93;;
54454;SDS011;40364;52.270;10.546;2023-03-20T00:38:41;11.93;;;6.45;;
54454;SDS011;40364;52.270;10.546;2023-03-20T00:41:11;11.65;;;6.93;;
54454;SDS011;40364;52.270;10.546;2023-03-20T00:43:43;12.23;;;6.47;;
54454;SDS011;40364;52.270;10.546;2023-03-20T00:46:12;10.68;;;6.80;;
54454;SDS011;40364;52.270;10.546;2023-03-20T00:48:39;10.00;;;5.90;;
54454;SDS011;40364;52.270;10.546;2023-03-20T00:51:06;9.32;;;5.43;;
54454;SDS011;40364;52.270;10.546;2023-03-20T00:53:32;14.38;;;6.18;;
54454;SDS011;40364;52.270;10.546;2023-03-20T00:55:59;11.20;;;6.97;;
54454;SDS011;40364;52.270;10.546;2023-03-20T00:58:25;11.40;;;6.70;;
54454;SDS011;40364;52.270;10.546;2023-03-20T01:00:52;10.63;;;6.60;;
54454;SDS011;40364;52.270;10.546;2023-03-20T01:03:20;9.55;;;5.93;;
54454;SDS011;40364;52.270;10.546;2023-03-20T01:05:47;12.32;;;6.30;;
54454;SDS011;40364;52.270;10.546;2023-03-20T01:08:15;10.45;;;6.32;;
54454;SDS011;40364;52.270;10.546;2023-03-20T01:10:42;11.00;;;6.13;;
54454;SDS011;40364;52.270;10.546;2023-03-20T01:13:12;12.48;;;6.88;;
54454;SDS011;40364;52.270;10.546;2023-03-20T01:15:40;15.68;;;7.38;;
54454;SDS011;40364;52.270;10.546;2023-03-20T01:18:08;12.07;;;7.05;;
54454;SDS011;40364;52.270;10.546;2023-03-20T01:20:37;12.30;;;7.05;;
54454;SDS011;40364;52.270;10.546;2023-03-20T01:23:04;11.23;;;6.68;;
54454;SDS011;40364;52.270;10.546;2023-03-20T01:25:31;14.50;;;7.57;;
54454;SDS011;40364;52.270;10.546;2023-03-20T01:27:57;16.33;;;8.10;;
54454;SDS011;40364;52.270;10.546;2023-03-20T01:30:24;15.65;;;9.23;;
54454;SDS011;40364;52.270;10.546;2023-03-20T01:32:51;20.02;;;10.27;;
54454;SDS011;40364;52.270;10.546;2023-03-20T01:35:19;17.13;;;9.88;;
54454;SDS011;40364;52.270;10.546;2023-03-20T01:37:47;16.33;;;9.57;;
54454;SDS011;40364;52.270;10.546;2023-03-20T01:40:29;19.88;;;10.85;;
54454;SDS011;40364;52.270;10.546;2023-03-20T01:42:57;23.02;;;11.25;;
54454;SDS011;40364;52.270;10.546;2023-03-20T01:45:25;21.42;;;11.73;;
54454;SDS011;40364;52.270;10.546;2023-03-20T01:47:53;24.65;;;11.18;;
54454;SDS011;40364;52.270;10.546;2023-03-20T01:50:24;23.13;;;12.23;;
54454;SDS011;40364;52.270;10.546;2023-03-20T01:52:53;25.67;;;12.60;;
54454;SDS011;40364;52.270;10.546;2023-03-20T01:55:21;27.63;;;13.00;;
54454;SDS011;40364;52.270;10.546;2023-03-20T01:57:47;27.92;;;13.82;;
54454;SDS011;40364;52.270;10.546;2023-03-20T02:00:16;30.27;;;15.70;;
54454;SDS011;40364;52.270;10.546;2023-03-20T02:02:43;31.52;;;16.05;;
54454;SDS011;40364;52.270;10.546;2023-03-20T02:05:10;32.00;;;16.67;;
54454;SDS011;40364;52.270;10.546;2023-03-20T02:07:38;34.20;;;16.25;;
54454;SDS011;40364;52.270;10.546;2023-03-20T02:10:09;37.28;;;17.40;;
54454;SDS011;40364;52.270;10.546;2023-03-20T02:12:36;35.08;;;17.38;;
54454;SDS011;40364;52.270;10.546;2023-03-20T02:15:03;36.63;;;17.00;;
54454;SDS011;40364;52.270;10.546;2023-03-20T02:17:30;34.28;;;16.08;;
54454;SDS011;40364;52.270;10.546;2023-03-20T02:19:57;32.83;;;15.95;;
54454;SDS011;40364;52.270;10.546;2023-03-20T02:25:23;37.10;;;17.15;;
54454;SDS011;40364;52.270;10.546;2023-03-20T02:28:00;39.47;;;16.25;;
54454;SDS011;40364;52.270;10.546;2023-03-20T02:36:17;43.90;;;17.15;;
54454;SDS011;40364;52.270;10.546;2023-03-20T02:41:32;40.88;;;16.95;;
54454;SDS011;40364;52.270;10.546;2023-03-20T02:44:03;46.22;;;18.15;;
54454;SDS011;40364;52.270;10.546;2023-03-20T02:46:34;47.50;;;17.58;;
54454;SDS011;40364;52.270;10.546;2023-03-20T02:49:02;40.80;;;17.70;;
54454;SDS011;40364;52.270;10.546;2023-03-20T02:51:32;41.40;;;16.83;;
54454;SDS011;40364;52.270;10.546;2023-03-20T02:54:03;40.10;;;16.63;;
54454;SDS011;40364;52.270;10.546;2023-03-20T02:56:34;44.80;;;17.98;;
54454;SDS011;40364;52.270;10.546;2023-03-20T02:59:05;37.15;;;16.63;;
54454;SDS011;40364;52.270;10.546;2023-03-20T03:01:34;43.85;;;17.08;;
54454;SDS011;40364;52.270;10.546;2023-03-20T03:04:03;44.13;;;18.83;;
54454;SDS011;40364;52.270;10.546;2023-03-20T03:06:32;39.72;;;16.08;;
54454;SDS011;40364;52.270;10.546;2023-03-20T03:09:01;45.17;;;18.13;;
54454;SDS011;40364;52.270;10.546;2023-03-20T03:11:29;48.80;;;17.98;;
54454;SDS011;40364;52.270;10.546;2023-03-20T03:13:57;49.55;;;18.60;;
54454;SDS011;40364;52.270;10.546;2023-03-20T03:16:25;49.05;;;18.60;;
54454;SDS011;40364;52.270;10.546;2023-03-20T03:18:54;55.35;;;19.25;;
54454;SDS011;40364;52.270;10.546;2023-03-20T03:21:22;58.88;;;19.88;;
54454;SDS011;40364;52.270;10.546;2023-03-20T03:23:48;52.92;;;19.60;;
54454;SDS011;40364;52.270;10.546;2023-03-20T03:26:17;65.82;;;21.40;;
54454;SDS011;40364;52.270;10.546;2023-03-20T03:28:45;60.55;;;19.92;;
54454;SDS011;40364;52.270;10.546;2023-03-20T03:31:15;54.13;;;19.48;;
54454;SDS011;40364;52.270;10.546;2023-03-20T03:33:43;49.08;;;20.13;;
54454;SDS011;40364;52.270;10.546;2023-03-20T03:36:11;60.70;;;20.75;;
54454;SDS011;40364;52.270;10.546;2023-03-20T03:38:40;53.55;;;19.92;;
54454;SDS011;40364;52.270;10.546;2023-03-20T03:41:13;65.43;;;21.50;;
54454;SDS011;40364;52.270;10.546;2023-03-20T03:43:44;61.35;;;21.33;;
54454;SDS011;40364;52.270;10.546;2023-03-20T03:46:12;54.75;;;19.58;;
54454;SDS011;40364;52.270;10.546;2023-03-20T03:48:44;71.40;;;21.60;;
54454;SDS011;40364;52.270;10.546;2023-03-20T03:51:13;62.70;;;23.10;;
54454;SDS011;40364;52.270;10.546;2023-03-20T03:53:41;65.70;;;21.95;;
54454;SDS011;40364;52.270;10.546;2023-03-20T03:56:10;70.57;;;23.10;;
54454;SDS011;40364;52.270;10.546;2023-03-20T03:58:38;61.28;;;20.50;;
54454;SDS011;40364;52.270;10.546;2023-03-20T04:01:06;62.90;;;21.90;;
54454;SDS011;40364;52.270;10.546;2023-03-20T04:03:37;64.82;;;20.23;;
54454;SDS011;40364;52.270;10.546;2023-03-20T04:06:05;55.50;;;19.80;;
54454;SDS011;40364;52.270;10.546;2023-03-20T04:08:34;56.50;;;17.80;;
54454;SDS011;40364;52.270;10.546;2023-03-20T04:11:00;53.55;;;19.58;;
54454;SDS011;40364;52.270;10.546;2023-03-20T04:13:27;54.45;;;18.92;;
54454;SDS011;40364;52.270;10.546;2023-03-20T04:15:53;46.00;;;17.23;;
54454;SDS011;40364;52.270;10.546;2023-03-20T04:18:20;49.95;;;17.70;;
54454;SDS011;40364;52.270;10.546;2023-03-20T04:20:46;48.80;;;17.30;;
54454;SDS011;40364;52.270;10.546;2023-03-20T04:23:14;49.17;;;16.23;;
54454;SDS011;40364;52.270;10.546;2023-03-20T04:25:41;44.58;;;15.70;;
54454;SDS011;40364;52.270;10.546;2023-03-20T04:28:07;44.00;;;16.77;;
54454;SDS011;40364;52.270;10.546;2023-03-20T04:30:35;49.53;;;16.75;;
54454;SDS011;40364;52.270;10.546;2023-03-20T04:33:02;43.85;;;16.80;;
54454;SDS011;40364;52.270;10.546;2023-03-20T04:35:29;42.80;;;15.45;;
54454;SDS011;40364;52.270;10.546;2023-03-20T04:37:55;42.78;;;15.77;;
54454;SDS011;40364;52.270;10.546;2023-03-20T04:40:23;44.97;;;14.95;;
54454;SDS011;40364;52.270;10.546;2023-03-20T04:42:50;43.10;;;15.85;;
54454;SDS011;40364;52.270;10.546;2023-03-20T04:45:16;38.55;;;14.93;;
54454;SDS011;40364;52.270;10.546;2023-03-20T04:47:43;44.65;;;15.82;;
54454;SDS011;40364;52.270;10.546;2023-03-20T04:50:10;44.70;;;15.52;;
54454;SDS011;40364;52.270;10.546;2023-03-20T04:52:38;44.97;;;15.63;;
54454;SDS011;40364;52.270;10.546;2023-03-20T04:55:04;50.55;;;16.17;;
54454;SDS011;40364;52.270;10.546;2023-03-20T04:57:33;44.67;;;15.77;;
54454;SDS011;40364;52.270;10.546;2023-03-20T04:59:59;41.95;;;16.95;;
54454;SDS011;40364;52.270;10.546;2023-03-20T05:02:26;43.90;;;15.43;;
54454;SDS011;40364;52.270;10.546;2023-03-20T05:04:52;42.05;;;15.98;;
54454;SDS011;40364;52.270;10.546;2023-03-20T05:07:18;49.97;;;16.45;;
54454;SDS011;40364;52.270;10.546;2023-03-20T05:09:45;56.25;;;18.63;;
54454;SDS011;40364;52.270;10.546;2023-03-20T05:12:11;40.50;;;15.02;;
54454;SDS011;40364;52.270;10.546;2023-03-20T05:14:39;48.47;;;15.77;;
54454;SDS011;40364;52.270;10.546;2023-03-20T05:17:06;49.28;;;17.10;;
54454;SDS011;40364;52.270;10.546;2023-03-20T05:19:32;46.25;;;17.23;;
54454;SDS011;40364;52.270;10.546;2023-03-20T05:21:58;46.15;;;16.65;;
54454;SDS011;40364;52.270;10.546;2023-03-20T05:24:25;45.70;;;16.17;;
54454;SDS011;40364;52.270;10.546;2023-03-20T05:26:53;54.50;;;16.85;;
54454;SDS011;40364;52.270;10.546;2023-03-20T05:29:19;45.33;;;15.95;;
54454;SDS011;40364;52.270;10.546;2023-03-20T05:31:47;53.47;;;16.50;;
54454;SDS011;40364;52.270;10.546;2023-03-20T05:34:14;51.72;;;18.33;;
54454;SDS011;40364;52.270;10.546;2023-03-20T05:36:41;43.15;;;15.85;;
54454;SDS011;40364;52.270;10.546;2023-03-20T05:39:07;46.53;;;16.02;;
54454;SDS011;40364;52.270;10.546;2023-03-20T05:41:33;46.00;;;16.70;;
54454;SDS011;40364;52.270;10.546;2023-03-20T05:44:00;43.67;;;15.50;;
54454;SDS011;40364;52.270;10.546;2023-03-20T05:46:26;45.63;;;16.33;;
54454;SDS011;40364;52.270;10.546;2023-03-20T05:48:54;49.58;;;16.00;;
54454;SDS011;40364;52.270;10.546;2023-03-20T05:51:21;37.97;;;15.48;;
54454;SDS011;40364;52.270;10.546;2023-03-20T05:53:47;40.75;;;15.60;;
54454;SDS011;40364;52.270;10.546;2023-03-20T05:56:13;42.28;;;14.65;;
54454;SDS011;40364;52.270;10.546;2023-03-20T05:58:40;39.25;;;14.05;;
54454;SDS011;40364;52.270;10.546;2023-03-20T06:01:07;37.67;;;13.20;;
54454;SDS011;40364;52.270;10.546;2023-03-20T06:03:34;39.75;;;13.77;;
54454;SDS011;40364;52.270;10.546;2023-03-20T06:06:02;39.22;;;14.25;;
54454;SDS011;40364;52.270;10.546;2023-03-20T06:08:29;29.75;;;12.25;;
54454;SDS011;40364;52.270;10.546;2023-03-20T06:10:55;37.88;;;13.25;;
54454;SDS011;40364;52.270;10.546;2023-03-20T06:13:21;35.67;;;13.30;;
54454;SDS011;40364;52.270;10.546;2023-03-20T06:15:48;37.95;;;13.77;;
54454;SDS011;40364;52.270;10.546;2023-03-20T06:18:14;38.05;;;13.48;;
54454;SDS011;40364;52.270;10.546;2023-03-20T06:20:41;29.83;;;13.27;;
54454;SDS011;40364;52.270;10.546;2023-03-20T06:23:09;36.17;;;13.85;;
54454;SDS011;40364;52.270;10.546;2023-03-20T06:25:35;34.17;;;13.32;;
54454;SDS011;40364;52.270;10.546;2023-03-20T06:28:02;31.98;;;13.13;;
54454;SDS011;40364;52.270;10.546;2023-03-20T06:30:29;40.47;;;14.15;;
54454;SDS011;40364;52.270;10.546;2023-03-20T06:32:55;36.85;;;13.00;;
54454;SDS011;40364;52.270;10.546;2023-03-20T06:35:22;31.50;;;11.82;;
54454;SDS011;40364;52.270;10.546;2023-03-20T06:37:48;36.42;;;13.02;;
54454;SDS011;40364;52.270;10.546;2023-03-20T06:40:16;33.05;;;13.75;;
54454;SDS011;40364;52.270;10.546;2023-03-20T06:42:43;31.52;;;14.32;;
54454;SDS011;40364;52.270;10.546;2023-03-20T06:45:10;32.67;;;12.98;;
54454;SDS011;40364;52.270;10.546;2023-03-20T06:47:37;35.67;;;12.80;;
54454;SDS011;40364;52.270;10.546;2023-03-20T06:50:04;31.65;;;12.13;;
54454;SDS011;40364;52.270;10.546;2023-03-20T06:52:30;37.92;;;15.02;;
54454;SDS011;40364;52.270;10.546;2023-03-20T06:54:57;34.72;;;13.73;;
54454;SDS011;40364;52.270;10.546;2023-03-20T06:57:25;34.65;;;15.00;;
54454;SDS011;40364;52.270;10.546;2023-03-20T06:59:51;33.75;;;14.30;;
54454;SDS011;40364;52.270;10.546;2023-03-20T07:02:18;33.65;;;13.70;;
54454;SDS011;40364;52.270;10.546;2023-03-20T07:04:44;32.95;;;13.38;;
54454;SDS011;40364;52.270;10.546;2023-03-20T07:07:11;36.22;;;12.60;;
54454;SDS011;40364;52.270;10.546;2023-03-20T07:09:38;34.20;;;13.25;;
54454;SDS011;40364;52.270;10.546;2023-03-20T07:12:04;34.67;;;13.13;;
54454;SDS011;40364;52.270;10.546;2023-03-20T07:14:32;39.03;;;14.85;;
54454;SDS011;40364;52.270;10.546;2023-03-20T07:16:58;38.47;;;14.10;;
54454;SDS011;40364;52.270;10.546;2023-03-20T07:19:25;31.92;;;12.15;;
54454;SDS011;40364;52.270;10.546;2023-03-20T07:21:52;32.67;;;13.32;;
54454;SDS011;40364;52.270;10.546;2023-03-20T07:24:20;34.45;;;14.93;;
54454;SDS011;40364;52.270;10.546;2023-03-20T07:26:47;37.35;;;13.65;;
54454;SDS011;40364;52.270;10.546;2023-03-20T07:29:13;36.80;;;14.77;;
54454;SDS011;40364;52.270;10.546;2023-03-20T07:31:41;37.35;;;13.65;;
54454;SDS011;40364;52.270;10.546;2023-03-20T07:34:08;36.75;;;14.15;;
54454;SDS011;40364;52.270;10.546;2023-03-20T07:36:35;37.45;;;13.82;;
54454;SDS011;40364;52.270;10.546;2023-03-20T07:39:01;38.20;;;13.88;;
54454;SDS011;40364;52.270;10.546;2023-03-20T07:41:28;39.13;;;14.32;;
54454;SDS011;40364;52.270;10.546;2023-03-20T07:43:55;34.22;;;14.02;;
54454;SDS011;40364;52.270;10.546;2023-03-20T07:46:21;36.85;;;13.77;;
54454;SDS011;40364;52.270;10.546;2023-03-20T07:48:49;40.10;;;14.65;;
54454;SDS011;40364;52.270;10.546;2023-03-20T07:51:15;35.65;;;14.13;;
54454;SDS011;40364;52.270;10.546;2023-03-20T07:53:41;36.17;;;13.73;;
54454;SDS011;40364;52.270;10.546;2023-03-20T07:56:08;41.15;;;13.88;;
54454;SDS011;40364;52.270;10.546;2023-03-20T07:58:35;39.05;;;14.07;;
54454;SDS011;40364;52.270;10.546;2023-03-20T08:01:01;41.30;;;14.73;;
54454;SDS011;40364;52.270;10.546;2023-03-20T08:03:28;44.80;;;13.50;;
54454;SDS011;40364;52.270;10.546;2023-03-20T08:05:57;34.40;;;14.50;;
54454;SDS011;40364;52.270;10.546;2023-03-20T08:08:23;40.75;;;15.15;;
54454;SDS011;40364;52.270;10.546;2023-03-20T08:10:49;34.35;;;13.35;;
54454;SDS011;40364;52.270;10.546;2023-03-20T08:13:16;40.50;;;14.60;;
54454;SDS011;40364;52.270;10.546;2023-03-20T08:15:42;35.13;;;13.80;;
54454;SDS011;40364;52.270;10.546;2023-03-20T08:18:09;37.08;;;14.73;;
54454;SDS011;40364;52.270;10.546;2023-03-20T08:20:36;39.53;;;14.38;;
54454;SDS011;40364;52.270;10.546;2023-03-20T08:23:04;40.20;;;15.02;;
54454;SDS011;40364;52.270;10.546;2023-03-20T08:25:31;37.42;;;15.07;;
54454;SDS011;40364;52.270;10.546;2023-03-20T08:27:58;36.72;;;14.05;;
54454;SDS011;40364;52.270;10.546;2023-03-20T08:30:25;39.25;;;14.43;;
54454;SDS011;40364;52.270;10.546;2023-03-20T08:32:51;39.60;;;14.55;;
54454;SDS011;40364;52.270;10.546;2023-03-20T08:35:18;43.13;;;15.25;;
54454;SDS011;40364;52.270;10.546;2023-03-20T08:37:45;39.20;;;15.38;;
54454;SDS011;40364;52.270;10.546;2023-03-20T08:40:13;41.22;;;15.43;;
54454;SDS011;40364;52.270;10.546;2023-03-20T08:42:39;40.88;;;14.88;;
54454;SDS011;40364;52.270;10.546;2023-03-20T08:45:06;42.17;;;14.93;;
54454;SDS011;40364;52.270;10.546;2023-03-20T08:47:33;53.17;;;16.27;;
54454;SDS011;40364;52.270;10.546;2023-03-20T08:49:59;39.90;;;15.75;;
54454;SDS011;40364;52.270;10.546;2023-03-20T08:52:25;36.28;;;14.95;;
54454;SDS011;40364;52.270;10.546;2023-03-20T08:54:52;40.53;;;15.85;;
54454;SDS011;40364;52.270;10.546;2023-03-20T08:57:20;32.30;;;15.15;;
54454;SDS011;40364;52.270;10.546;2023-03-20T08:59:47;35.03;;;14.05;;
54454;SDS011;40364;52.270;10.546;2023-03-20T09:02:13;30.67;;;14.30;;
54454;SDS011;40364;52.270;10.546;2023-03-20T09:04:40;28.23;;;12.68;;
54454;SDS011;40364;52.270;10.546;2023-03-20T09:07:06;29.42;;;13.48;;
54454;SDS011;40364;52.270;10.546;2023-03-20T09:09:33;27.55;;;12.75;;
54454;SDS011;40364;52.270;10.546;2023-03-20T09:12:00;30.40;;;12.95;;
54454;SDS011;40364;52.270;10.546;2023-03-20T09:14:28;32.13;;;14.15;;
54454;SDS011;40364;52.270;10.546;2023-03-20T09:16:55;30.40;;;14.82;;
54454;SDS011;40364;52.270;10.546;2023-03-20T09:19:22;31.50;;;13.90;;
54454;SDS011;40364;52.270;10.546;2023-03-20T09:21:48;31.02;;;13.70;;
54454;SDS011;40364;52.270;10.546;2023-03-20T09:24:14;29.83;;;13.60;;
54454;SDS011;40364;52.270;10.546;2023-03-20T09:26:41;29.30;;;12.32;;
54454;SDS011;40364;52.270;10.546;2023-03-20T09:29:07;31.17;;;13.38;;
54454;SDS011;40364;52.270;10.546;2023-03-20T09:31:35;29.83;;;13.18;;
54454;SDS011;40364;52.270;10.546;2023-03-20T09:34:02;27.70;;;12.48;;
54454;SDS011;40364;52.270;10.546;2023-03-20T09:36:28;31.05;;;13.43;;
54454;SDS011;40364;52.270;10.546;2023-03-20T09:38:55;28.48;;;12.75;;
54454;SDS011;40364;52.270;10.546;2023-03-20T09:41:22;30.55;;;13.68;;
54454;SDS011;40364;52.270;10.546;2023-03-20T09:44:00;29.17;;;13.93;;
54454;SDS011;40364;52.270;10.546;2023-03-20T09:46:33;26.15;;;12.73;;
54454;SDS011;40364;52.270;10.546;2023-03-20T09:49:06;26.42;;;12.88;;
54454;SDS011;40364;52.270;10.546;2023-03-20T09:51:39;28.20;;;11.82;;
54454;SDS011;40364;52.270;10.546;2023-03-20T09:54:09;28.17;;;12.70;;
54454;SDS011;40364;52.270;10.546;2023-03-20T09:56:37;29.85;;;13.13;;
54454;SDS011;40364;52.270;10.546;2023-03-20T09:59:04;31.63;;;13.70;;
54454;SDS011;40364;52.270;10.546;2023-03-20T10:01:32;30.02;;;14.48;;
54454;SDS011;40364;52.270;10.546;2023-03-20T10:03:59;32.38;;;14.35;;
54454;SDS011;40364;52.270;10.546;2023-03-20T10:06:28;29.83;;;14.07;;
54454;SDS011;40364;52.270;10.546;2023-03-20T10:08:54;31.40;;;14.20;;
54454;SDS011;40364;52.270;10.546;2023-03-20T10:11:35;27.88;;;14.10;;
54454;SDS011;40364;52.270;10.546;2023-03-20T10:14:15;33.78;;;15.07;;
54454;SDS011;40364;52.270;10.546;2023-03-20T10:16:49;32.92;;;13.38;;
54454;SDS011;40364;52.270;10.546;2023-03-20T10:19:20;33.50;;;14.07;;
54454;SDS011;40364;52.270;10.546;2023-03-20T10:21:50;28.95;;;13.75;;
54454;SDS011;40364;52.270;10.546;2023-03-20T10:24:19;38.47;;;15.02;;
54454;SDS011;40364;52.270;10.546;2023-03-20T10:26:48;30.83;;;13.93;;
54454;SDS011;40364;52.270;10.546;2023-03-20T10:29:18;32.75;;;14.20;;
54454;SDS011;40364;52.270;10.546;2023-03-20T10:31:49;34.30;;;13.60;;
54454;SDS011;40364;52.270;10.546;2023-03-20T10:34:19;29.48;;;13.20;;
54454;SDS011;40364;52.270;10.546;2023-03-20T10:36:55;24.58;;;11.75;;
54454;SDS011;40364;52.270;10.546;2023-03-20T10:39:29;25.60;;;11.50;;
54454;SDS011;40364;52.270;10.546;2023-03-20T10:41:59;30.20;;;12.65;;
54454;SDS011;40364;52.270;10.546;2023-03-20T10:44:28;30.08;;;12.48;;
54454;SDS011;40364;52.270;10.546;2023-03-20T10:46:56;28.17;;;13.05;;
54454;SDS011;40364;52.270;10.546;2023-03-20T10:49:26;25.27;;;11.68;;
54454;SDS011;40364;52.270;10.546;2023-03-20T10:51:57;27.80;;;12.35;;
54454;SDS011;40364;52.270;10.546;2023-03-20T10:54:25;24.88;;;11.90;;
54454;SDS011;40364;52.270;10.546;2023-03-20T10:56:52;28.05;;;12.93;;
54454;SDS011;40364;52.270;10.546;2023-03-20T10:59:21;29.60;;;13.68;;
54454;SDS011;40364;52.270;10.546;2023-03-20T11:01:48;28.98;;;12.20;;
54454;SDS011;40364;52.270;10.546;2023-03-20T11:04:15;23.38;;;11.90;;
54454;SDS011;40364;52.270;10.546;2023-03-20T11:06:43;24.60;;;11.73;;
54454;SDS011;40364;52.270;10.546;2023-03-20T11:09:14;27.20;;;13.63;;
54454;SDS011;40364;52.270;10.546;2023-03-20T11:11:44;30.33;;;13.02;;
54454;SDS011;40364;52.270;10.546;2023-03-20T11:14:15;29.63;;;13.02;;
54454;SDS011;40364;52.270;10.546;2023-03-20T11:16:42;32.45;;;13.68;;
54454;SDS011;40364;52.270;10.546;2023-03-20T11:19:12;35.38;;;14.40;;
54454;SDS011;40364;52.270;10.546;2023-03-20T11:21:43;30.70;;;13.80;;
54454;SDS011;40364;52.270;10.546;2023-03-20T11:24:20;35.92;;;15.10;;
54454;SDS011;40364;52.270;10.546;2023-03-20T11:26:48;33.78;;;15.55;;
54454;SDS011;40364;52.270;10.546;2023-03-20T11:29:17;35.33;;;16.58;;
54454;SDS011;40364;52.270;10.546;2023-03-20T11:31:44;35.10;;;15.90;;
54454;SDS011;40364;52.270;10.546;2023-03-20T11:34:19;33.55;;;16.42;;
54454;SDS011;40364;52.270;10.546;2023-03-20T11:36:52;39.80;;;18.63;;
54454;SDS011;40364;52.270;10.546;2023-03-20T11:39:22;44.65;;;17.95;;
54454;SDS011;40364;52.270;10.546;2023-03-20T11:41:51;36.85;;;16.75;;
54454;SDS011;40364;52.270;10.546;2023-03-20T11:44:21;34.47;;;17.48;;
54454;SDS011;40364;52.270;10.546;2023-03-20T11:46:53;35.13;;;17.08;;
54454;SDS011;40364;52.270;10.546;2023-03-20T11:49:21;28.02;;;15.18;;
54454;SDS011;40364;52.270;10.546;2023-03-20T11:51:48;24.52;;;14.18;;
54454;SDS011;40364;52.270;10.546;2023-03-20T11:54:16;22.15;;;13.43;;
54454;SDS011;40364;52.270;10.546;2023-03-20T11:56:51;22.58;;;13.02;;
54454;SDS011;40364;52.270;10.546;2023-03-20T11:59:18;23.33;;;13.02;;
54454;SDS011;40364;52.270;10.546;2023-03-20T12:01:46;22.08;;;13.43;;
54454;SDS011;40364;52.270;10.546;2023-03-20T12:04:14;23.27;;;14.25;;
54454;SDS011;40364;52.270;10.546;2023-03-20T12:06:42;22.40;;;12.50;;
54454;SDS011;40364;52.270;10.546;2023-03-20T12:09:11;19.88;;;11.77;;
54454;SDS011;40364;52.270;10.546;2023-03-20T12:11:42;23.00;;;11.90;;
54454;SDS011;40364;52.270;10.546;2023-03-20T12:14:14;20.30;;;12.35;;
54454;SDS011;40364;52.270;10.546;2023-03-20T12:16:41;22.65;;;12.57;;
54454;SDS011;40364;52.270;10.546;2023-03-20T12:19:09;21.10;;;11.80;;
54454;SDS011;40364;52.270;10.546;2023-03-20T12:21:38;17.63;;;11.32;;
54454;SDS011;40364;52.270;10.546;2023-03-20T12:24:08;17.88;;;11.27;;
54454;SDS011;40364;52.270;10.546;2023-03-20T12:26:38;20.08;;;11.80;;
54454;SDS011;40364;52.270;10.546;2023-03-20T12:29:09;18.02;;;11.38;;
54454;SDS011;40364;52.270;10.546;2023-03-20T12:31:41;18.23;;;11.60;;
54454;SDS011;40364;52.270;10.546;2023-03-20T12:34:11;16.17;;;10.13;;
54454;SDS011;40364;52.270;10.546;2023-03-20T12:36:38;15.13;;;10.70;;
54454;SDS011;40364;52.270;10.546;2023-03-20T12:39:09;15.05;;;10.00;;
54454;SDS011;40364;52.270;10.546;2023-03-20T12:41:38;14.63;;;10.32;;
54454;SDS011;40364;52.270;10.546;2023-03-20T12:44:15;16.05;;;10.35;;
54454;SDS011;40364;52.270;10.546;2023-03-20T12:46:47;14.95;;;10.30;;
54454;SDS011;40364;52.270;10.546;2023-03-20T12:54:12;15.07;;;10.63;;
54454;SDS011;40364;52.270;10.546;2023-03-20T12:56:47;15.90;;;10.55;;
54454;SDS011;40364;52.270;10.546;2023-03-20T12:59:18;15.55;;;10.18;;
54454;SDS011;40364;52.270;10.546;2023-03-20T13:01:50;16.52;;;9.70;;
54454;SDS011;40364;52.270;10.546;2023-03-20T13:04:29;16.48;;;10.18;;
54454;SDS011;40364;52.270;10.546;2023-03-20T13:07:00;15.95;;;9.88;;
54454;SDS011;40364;52.270;10.546;2023-03-20T13:09:42;15.07;;;10.13;;
54454;SDS011;40364;52.270;10.546;2023-03-20T13:12:14;15.13;;;10.32;;
54454;SDS011;40364;52.270;10.546;2023-03-20T13:14:46;13.63;;;9.85;;
54454;SDS011;40364;52.270;10.546;2023-03-20T13:17:16;14.00;;;9.85;;
54454;SDS011;40364;52.270;10.546;2023-03-20T13:19:48;16.35;;;9.95;;
54454;SDS011;40364;52.270;10.546;2023-03-20T13:22:18;17.02;;;10.05;;
54454;SDS011;40364;52.270;10.546;2023-03-20T13:24:48;17.38;;;11.85;;
54454;SDS011;40364;52.270;10.546;2023-03-20T13:27:19;15.77;;;10.13;;
54454;SDS011;40364;52.270;10.546;2023-03-20T13:29:49;18.05;;;10.85;;
54454;SDS011;40364;52.270;10.546;2023-03-20T13:32:23;14.48;;;10.10;;
54454;SDS011;40364;52.270;10.546;2023-03-20T13:34:55;18.65;;;10.32;;
54454;SDS011;40364;52.270;10.546;2023-03-20T13:37:26;14.75;;;9.70;;
54454;SDS011;40364;52.270;10.546;2023-03-20T13:39:59;17.67;;;10.43;;
54454;SDS011;40364;52.270;10.546;2023-03-20T13:42:30;17.48;;;10.82;;
54454;SDS011;40364;52.270;10.546;2023-03-20T13:45:00;16.13;;;10.80;;
54454;SDS011;40364;52.270;10.546;2023-03-20T13:47:31;16.38;;;10.38;;
54454;SDS011;40364;52.270;10.546;2023-03-20T13:49:59;15.40;;;11.20;;
54454;SDS011;40364;52.270;10.546;2023-03-20T13:52:31;13.93;;;9.95;;
54454;SDS011;40364;52.270;10.546;2023-03-20T13:55:05;20.58;;;9.80;;
54454;SDS011;40364;52.270;10.546;2023-03-20T13:57:42;14.27;;;10.00;;
54454;SDS011;40364;52.270;10.546;2023-03-20T14:00:16;13.38;;;9.55;;
54454;SDS011;40364;52.270;10.546;2023-03-20T14:02:52;12.63;;;9.65;;
54454;SDS011;40364;52.270;10.546;2023-03-20T14:05:27;18.17;;;10.00;;
54454;SDS011;40364;52.270;10.546;2023-03-20T14:07:55;13.20;;;9.35;;
54454;SDS011;40364;52.270;10.546;2023-03-20T14:10:34;17.15;;;10.00;;
54454;SDS011;40364;52.270;10.546;2023-03-20T14:13:03;13.52;;;10.00;;
54454;SDS011;40364;52.270;10.546;2023-03-20T14:15:30;12.27;;;9.20;;
54454;SDS011;40364;52.270;10.546;2023-03-20T14:17:59;12.85;;;9.73;;
54454;SDS011;40364;52.270;10.546;2023-03-20T14:20:28;17.17;;;9.88;;
54454;SDS011;40364;52.270;10.546;2023-03-20T14:22:56;14.55;;;9.18;;
54454;SDS011;40364;52.270;10.546;2023-03-20T14:25:23;12.98;;;8.93;;
54454;SDS011;40364;52.270;10.546;2023-03-20T14:27:53;13.18;;;8.75;;
54454;SDS011;40364;52.270;10.546;2023-03-20T14:30:35;13.60;;;8.75;;
54454;SDS011;40364;52.270;10.546;2023-03-20T14:33:06;12.05;;;7.72;;
54454;SDS011;40364;52.270;10.546;2023-03-20T14:35:35;15.70;;;8.55;;